Seefeld, Austria

8:48 AM CET on February 22, 2017 (GMT +0100)
Seefeld Tirol, Austria, Apartm.Residenz | | Change Station

Elev 3871 ft 47.33 °N, 11.19 °E | Updated 6 minutes ago

Partly Cloudy
Partly Cloudy
36.5 °F
Feels Like 36 °F
N
1.2
Wind Variable Wind from SW

Today
High -- | Low -- °F
--% Chance of Precip.
Yesterday
High -- | Low -- °F
Precip. -- in
Pressure 30.01 in
Visibility 0.4 miles
Clouds Scattered Clouds 200 ft
Mostly Cloudy 400 ft
Windchill 36 °F
Dew Point 36 °F
Humidity 100%
Rainfall 0.22 in
Snow Depth Not available.
7:08 AM 5:49 PM
Waning Crescent, 19% visible
METAR LOWI 220720Z 26004KT 0600 R08/0900D R26/1200D BCFG SCT002 BKN004 05/05 Q1016 BECMG 5000 FEW005
Pressure 30.01 in
Visibility 0.4 miles
Clouds Scattered Clouds 200 ft
Mostly Cloudy 400 ft
Windchill 36 °F
Dew Point 36 °F
Humidity 100%
Rainfall 0.22 in
Snow Depth Not available.
7:08 AM 5:49 PM
Waning Crescent, 19% visible
METAR LOWI 220720Z 26004KT 0600 R08/0900D R26/1200D BCFG SCT002 BKN004 05/05 Q1016 BECMG 5000 FEW005

Get Your Daily Forecast Email!

Thanks for signing up!

Be on the lookout for a verification email in your inbox.

You'll start receiving the daily forecast at 8 AM.

×

10-Day Weather Forecast

×

Almanac

Astronomy

Feb. 22, 2017 Rise Set
Actual Time
Civil Twilight
Nautical Twilight
Astronomical Twilight
Moon
Length of Visible Light
Length of Day
Tomorrow will be .
, % of the Moon is Illuminated

Today's Extremes

Country Highs Country Lows

Community

WunderPhotos

Upload Photos

1,962,540 photos uploaded!

WunderBlog® & News

Nearby

Air Quality

  Air Quality AQ Index Pollutant
Not available.

Snow Depth

Station Depth Elevation

Earthquake Activity

City Distance Mag. Time & Date
Minimum magnitude displayed is 2.5.

Coastal Water Temperatures

Place Temperature

Stations

Nearby Weather Stations

Station Location Temp. Windchill Dew Point Humidity Wind Precip. Elev Updated Type